• Join FlightAware (Why Join?)
  • Login
  • US Flag 
05:06AM EDT


 

Airport Tracker/Info


-or-


 

Live Flight TrackerFlight Track Log ✈ N213KM ✈ 10-May-2013 ✈ KHOE - KSUA

Flight Track Log - Related Links

Times and Time Zones

All times are in EDT time to prevent confusion due to time zone crossing. See the N213KM flight status page for this flight to view local times or setup timezone preferences in your user account.

Time Position Orientation Groundspeed Altitude Reporting Facility
EDT Latitude Longitude Course Direction KTS MPH feet Rate Location/Type
12:52PM 30.9678 -82.6892 142° Southeast 153 176 1,500  Level Jacksonville Center
12:53PM 30.9408 -82.6650 142° Southeast 136 157 2,100 540 Climbing Jacksonville Center
12:54PM 30.9072 -82.6336 141° Southeast 134 154 2,700 540 Climbing Jacksonville Center
12:55PM 30.8800 -82.6069 140° Southeast 139 160 3,300 600 Climbing Jacksonville Center
12:56PM 30.8486 -82.5781 142° Southeast 134 154 3,900 600 Climbing Jacksonville Center
12:57PM 30.8194 -82.5492 140° Southeast 134 154 4,500 540 Climbing Jacksonville Center
12:58PM 30.7922 -82.5178 135° Southeast 144 166 5,000 480 Climbing Jacksonville Center
12:59PM 30.7586 -82.4889 144° Southeast 153 176 5,500 420 Climbing Jacksonville Center
01:00PM 30.7250 -82.4575 141° Southeast 144 166 5,900 420 Climbing Jacksonville Center
01:01PM 30.6936 -82.4286 142° Southeast 153 176 6,400 480 Climbing Jacksonville Center
01:02PM 30.6603 -82.3950 139° Southeast 152 175 6,900 420 Climbing Jacksonville Center
01:03PM 30.6267 -82.3614 139° Southeast 152 175 7,400 420 Climbing Jacksonville Center
01:04PM 30.5953 -82.3328 142° Southeast 154 177 7,800 300 Climbing Jacksonville Center
01:05PM 30.5617 -82.2992 139° Southeast 154 177 8,000 60 Climbing Jacksonville Center
01:06PM 30.5239 -82.2631 141° Southeast 164 189 8,000  Level Jacksonville Center
01:07PM 30.4797 -82.2200 140° Southeast 177 204 8,000  Level Jacksonville Center
01:08PM 30.4442 -82.1867 141° Southeast 179 206 8,000  Level Jacksonville Center
01:09PM 30.4042 -82.1508 142° Southeast 175 201 8,000  Level Jacksonville Center
01:10PM 30.3644 -82.1125 140° Southeast 175 201 8,000  Level Jacksonville Center
01:11PM 30.3267 -82.0767 141° Southeast 176 203 8,000  Level Jacksonville Center
01:12PM 30.2867 -82.0361 139° Southeast 176 203 8,000  Level Jacksonville Center
01:13PM 30.2508 -82.0006 139° Southeast 176 203 8,000  Level Jacksonville Center
01:14PM 30.2131 -81.9672 143° Southeast 175 201 8,000  Level Jacksonville Center
01:15PM 30.1753 -81.9314 141° Southeast 175 201 8,000  Level Jacksonville Center
01:16PM 30.1436 -81.9006 140° Southeast 176 203 8,000  Level Jacksonville Center
01:17PM 30.1036 -81.8625 141° Southeast 176 203 8,000  Level Jacksonville Center
01:18PM 30.0678 -81.8269 139° Southeast 176 203 8,000  Level Jacksonville Center
01:19PM 30.0217 -81.7867 143° Southeast 175 201 8,000  Level Jacksonville Center
01:20PM 29.9836 -81.7511 141° Southeast 176 203 8,000  Level Jacksonville Center
01:21PM 29.9436 -81.7133 141° Southeast 178 205 8,000  Level Jacksonville Center
01:22PM 29.9100 -81.6800 139° Southeast 174 200 8,000  Level Jacksonville Center
01:23PM 29.8847 -81.6589 144° Southeast 176 203 8,000  Level Jacksonville Center
01:24PM 29.8406 -81.6164 140° Southeast 174 200 8,000  Level Jacksonville Center
01:25PM 29.8047 -81.5833 141° Southeast 175 201 8,000  Level Jacksonville Center
01:26PM 29.7667 -81.5503 143° Southeast 176 203 8,000  Level Jacksonville Center
01:27PM 29.7308 -81.5125 138° Southeast 178 205 8,000  Level Jacksonville Center
01:28PM 29.6844 -81.4725 143° Southeast 178 205 8,000  Level Jacksonville Center
01:29PM 29.6464 -81.4372 141° Southeast 180 207 8,000  Level Jacksonville Center
01:30PM 29.6064 -81.3997 141° Southeast 179 206 8,000  Level Jacksonville Center
01:31PM 29.5706 -81.3619 137° Southeast 180 207 8,000  Level Jacksonville Center
01:32PM 29.5306 -81.3292 145° Southeast 181 208 8,000  Level Jacksonville Center
01:33PM 29.4881 -81.2869 139° Southeast 180 207 8,000  Level Jacksonville Center
01:34PM 29.4458 -81.2494 142° Southeast 180 207 8,000  Level Jacksonville Center
01:35PM 29.4058 -81.2119 141° Southeast 180 207 8,000  Level Jacksonville Center
01:36PM 29.3656 -81.1744 141° Southeast 181 208 8,000  Level Jacksonville Center
01:37PM 29.3319 -81.1442 142° Southeast 184 212 8,000  Level Jacksonville Center
01:38PM 29.2833 -81.1044 145° Southeast 178 205 8,000  Level Jacksonville Center
01:40PM 29.2000 -81.0667 158° South 180 207 8,000  Level Orlando TRACON
01:41PM 29.1667 -81.0500 156° South 176 203 8,000  Level Orlando TRACON
01:42PM 29.1167 -81.0333 164° South 170 196 8,000  Level Orlando TRACON
01:43PM 29.0667 -81.0167 164° South 175 201 8,000  Level Orlando TRACON
01:44PM 29.0167 -81.0000 164° South 175 201 8,000  Level Orlando TRACON
01:45PM 28.9667 -80.9833 164° South 177 204 8,000  Level Orlando TRACON
01:46PM 28.9333 -80.9667 156° South 170 196 8,100  Climbing Orlando TRACON
01:47PM 28.8833 -80.9500 164° South 177 204 8,100  Level Orlando TRACON
01:48PM 28.8333 -80.9333 164° South 178 205 8,100  Level Orlando TRACON
01:49PM 28.7833 -80.9000 150° Southeast 176 203 8,100  Level Orlando TRACON
01:50PM 28.7333 -80.8833 164° South 175 201 8,100  Level Orlando TRACON
01:51PM 28.6833 -80.8667 164° South 175 201 8,100  Level Orlando TRACON
01:52PM 28.6500 -80.8500 156° South 178 205 8,100  Level Orlando TRACON
01:53PM 28.6000 -80.8167 150° Southeast 180 207 8,100  Level Orlando TRACON
01:54PM 28.5500 -80.8000 164° South 177 204 8,100  Level Orlando TRACON
01:55PM 28.5000 -80.8000 180° South 176 203 8,100  Level Orlando TRACON
01:56PM 28.4667 -80.7833 156° South 177 204 8,100  Level Orlando TRACON
01:57PM 28.4167 -80.7500 150° Southeast 175 201 8,100  Level Orlando TRACON
01:58PM 28.3667 -80.7333 164° South 176 203 8,100  Level Orlando TRACON
01:59PM 28.3167 -80.7167 164° South 175 201 8,100  Level Orlando TRACON
02:01PM 28.2369 -80.6883 163° South 188 216 8,100  Level Miami Center
02:02PM 28.1939 -80.6658 155° Southeast 183 211 8,100  Level Miami Center
02:03PM 28.1467 -80.6383 153° Southeast 183 211 8,100  Level Miami Center
02:04PM 28.1014 -80.6108 152° Southeast 177 204 8,100  Level Miami Center
02:05PM 28.0583 -80.5836 151° Southeast 177 204 8,100  Level Miami Center
02:06PM 28.0169 -80.5633 157° South 171 197 8,100  Level Miami Center
02:07PM 27.9739 -80.5408 155° Southeast 171 197 8,100  Level Miami Center
02:08PM 27.9244 -80.5086 150° Southeast 171 197 8,100 -120 Level Miami Center
02:09PM 27.8792 -80.4861 156° South 181 208 7,900 -300 Descending Miami Center
02:10PM 27.8339 -80.4589 152° Southeast 181 208 7,600 -300 Descending Miami Center
02:11PM 27.7906 -80.4339 153° Southeast 181 208 7,400 -300 Descending Miami Center
02:12PM 27.7433 -80.4067 153° Southeast 186 214 7,100 -300 Descending Miami Center
02:13PM 27.6919 -80.3794 155° Southeast 191 220 6,800 -300 Descending Miami Center
02:14PM 27.6467 -80.3522 152° Southeast 191 220 6,600 -300 Descending Miami Center
02:15PM 27.6011 -80.3272 154° Southeast 191 220 6,300 -300 Descending Miami Center
02:16PM 27.5600 -80.3028 152° Southeast 191 220 6,100 -300 Descending Miami Center
02:17PM 27.5128 -80.2778 155° Southeast 191 220 5,800 -360 Descending Miami Center
02:18PM 27.4631 -80.2506 154° Southeast 191 220 5,400 -480 Descending Miami Center
02:19PM 27.4158 -80.2211 151° Southeast 191 220 4,900 -540 Descending Miami Center
02:20PM 27.3706 -80.1989 156° South 191 220 4,400 -600 Descending Miami Center
02:21PM 27.3267 -80.1975 178° South 184 212 3,800 -780 Descending Miami Center
02:22PM 27.2700 -80.2100 191° South 178 205 2,900 -1,020 Descending Miami Center
02:24PM 27.1958 -80.2592 211° Southwest 164 189 900 -780 Descending Miami Center
02:25PM 27.1619 -80.2767 205° Southwest 136 157 600 -300 Descending Miami Center
02:28PM 27.1323 -80.2625 50° Northeast  Level FlightAware Approximate